Terminal Aerodrome Forecast
Issued by NWS

Home | Current Version | Previous Version | Text Only | Print | Product List | Glossary On
Versions: 1 2 3 4 5 6 7 8 9 10 11 12 13 14 15 16 17 18 19 20 21 22 23 24
000
FTUS43 KAPX 211000 AAA
TAFPLN
TAF AMD
KPLN 211005Z 2110/2206 28003KT P6SM OVC012
     FM211600 VRB03KT P6SM BKN025
     FM220200 00000KT 4SM BR BKN015=

USA.gov is the U.S. government's official web portal to all federal, state and local government web resources and services.